sensor_id;sensor_type;location;lat;lon;timestamp;P1;durP1;ratioP1;P2;durP2;ratioP2
69260;SDS011;56378;52.404;20.816;2024-03-08T00:01:12;43.17;;;16.30;;
69260;SDS011;56378;52.404;20.816;2024-03-08T00:03:38;50.03;;;17.90;;
69260;SDS011;56378;52.404;20.816;2024-03-08T00:06:05;48.40;;;17.30;;
69260;SDS011;56378;52.404;20.816;2024-03-08T00:08:31;48.17;;;17.73;;
69260;SDS011;56378;52.404;20.816;2024-03-08T00:10:57;51.58;;;17.25;;
69260;SDS011;56378;52.404;20.816;2024-03-08T00:13:22;51.60;;;18.08;;
69260;SDS011;56378;52.404;20.816;2024-03-08T00:15:50;47.35;;;17.77;;
69260;SDS011;56378;52.404;20.816;2024-03-08T00:18:16;52.53;;;18.00;;
69260;SDS011;56378;52.404;20.816;2024-03-08T00:20:41;51.58;;;18.70;;
69260;SDS011;56378;52.404;20.816;2024-03-08T00:23:09;53.28;;;19.75;;
69260;SDS011;56378;52.404;20.816;2024-03-08T00:25:36;59.53;;;20.23;;
69260;SDS011;56378;52.404;20.816;2024-03-08T00:28:02;57.70;;;19.70;;
69260;SDS011;56378;52.404;20.816;2024-03-08T00:30:29;61.72;;;22.63;;
69260;SDS011;56378;52.404;20.816;2024-03-08T00:32:56;62.85;;;21.42;;
69260;SDS011;56378;52.404;20.816;2024-03-08T00:35:22;65.50;;;22.77;;
69260;SDS011;56378;52.404;20.816;2024-03-08T00:37:48;58.22;;;22.80;;
69260;SDS011;56378;52.404;20.816;2024-03-08T00:40:13;61.90;;;23.55;;
69260;SDS011;56378;52.404;20.816;2024-03-08T00:42:39;59.47;;;22.03;;
69260;SDS011;56378;52.404;20.816;2024-03-08T00:45:06;66.32;;;22.15;;
69260;SDS011;56378;52.404;20.816;2024-03-08T00:47:32;64.93;;;23.00;;
69260;SDS011;56378;52.404;20.816;2024-03-08T00:49:58;64.93;;;23.37;;
69260;SDS011;56378;52.404;20.816;2024-03-08T00:52:24;60.70;;;24.35;;
69260;SDS011;56378;52.404;20.816;2024-03-08T00:54:49;65.07;;;23.77;;
69260;SDS011;56378;52.404;20.816;2024-03-08T00:57:15;64.90;;;23.55;;
69260;SDS011;56378;52.404;20.816;2024-03-08T00:59:41;72.87;;;23.77;;
69260;SDS011;56378;52.404;20.816;2024-03-08T01:02:07;66.72;;;24.52;;
69260;SDS011;56378;52.404;20.816;2024-03-08T01:04:36;69.43;;;24.73;;
69260;SDS011;56378;52.404;20.816;2024-03-08T01:07:01;67.17;;;23.97;;
69260;SDS011;56378;52.404;20.816;2024-03-08T01:09:27;61.00;;;23.02;;
69260;SDS011;56378;52.404;20.816;2024-03-08T01:11:53;66.38;;;23.65;;
69260;SDS011;56378;52.404;20.816;2024-03-08T01:14:19;63.58;;;23.38;;
69260;SDS011;56378;52.404;20.816;2024-03-08T01:16:50;59.72;;;21.98;;
69260;SDS011;56378;52.404;20.816;2024-03-08T01:19:16;61.23;;;23.77;;
69260;SDS011;56378;52.404;20.816;2024-03-08T01:21:42;72.00;;;23.33;;
69260;SDS011;56378;52.404;20.816;2024-03-08T01:24:08;68.82;;;23.70;;
69260;SDS011;56378;52.404;20.816;2024-03-08T01:26:34;73.40;;;25.87;;
69260;SDS011;56378;52.404;20.816;2024-03-08T01:29:00;66.00;;;24.27;;
69260;SDS011;56378;52.404;20.816;2024-03-08T01:31:28;66.57;;;24.50;;
69260;SDS011;56378;52.404;20.816;2024-03-08T01:33:55;67.53;;;22.52;;
69260;SDS011;56378;52.404;20.816;2024-03-08T01:36:21;60.35;;;21.42;;
69260;SDS011;56378;52.404;20.816;2024-03-08T01:38:46;59.55;;;21.05;;
69260;SDS011;56378;52.404;20.816;2024-03-08T01:41:12;59.58;;;21.35;;
69260;SDS011;56378;52.404;20.816;2024-03-08T01:43:38;58.78;;;19.42;;
69260;SDS011;56378;52.404;20.816;2024-03-08T01:46:04;57.67;;;21.00;;
69260;SDS011;56378;52.404;20.816;2024-03-08T01:48:30;56.70;;;19.30;;
69260;SDS011;56378;52.404;20.816;2024-03-08T01:50:57;53.63;;;20.27;;
69260;SDS011;56378;52.404;20.816;2024-03-08T01:53:26;49.10;;;18.90;;
69260;SDS011;56378;52.404;20.816;2024-03-08T01:55:57;49.33;;;18.80;;
69260;SDS011;56378;52.404;20.816;2024-03-08T01:58:23;52.10;;;19.48;;
69260;SDS011;56378;52.404;20.816;2024-03-08T02:00:49;53.92;;;18.63;;
69260;SDS011;56378;52.404;20.816;2024-03-08T02:03:18;59.00;;;19.93;;
69260;SDS011;56378;52.404;20.816;2024-03-08T02:05:44;58.65;;;19.58;;
69260;SDS011;56378;52.404;20.816;2024-03-08T02:08:10;55.47;;;19.15;;
69260;SDS011;56378;52.404;20.816;2024-03-08T02:10:40;46.83;;;18.55;;
69260;SDS011;56378;52.404;20.816;2024-03-08T02:13:09;55.47;;;18.87;;
69260;SDS011;56378;52.404;20.816;2024-03-08T02:15:51;53.90;;;19.35;;
69260;SDS011;56378;52.404;20.816;2024-03-08T02:18:21;52.95;;;18.38;;
69260;SDS011;56378;52.404;20.816;2024-03-08T02:20:51;51.63;;;18.15;;
69260;SDS011;56378;52.404;20.816;2024-03-08T02:23:18;60.47;;;19.95;;
69260;SDS011;56378;52.404;20.816;2024-03-08T02:25:44;52.17;;;18.90;;
69260;SDS011;56378;52.404;20.816;2024-03-08T02:28:10;50.05;;;17.88;;
69260;SDS011;56378;52.404;20.816;2024-03-08T02:30:37;49.45;;;17.42;;
69260;SDS011;56378;52.404;20.816;2024-03-08T02:33:03;56.05;;;18.55;;
69260;SDS011;56378;52.404;20.816;2024-03-08T02:35:30;50.40;;;18.83;;
69260;SDS011;56378;52.404;20.816;2024-03-08T02:37:56;50.65;;;19.00;;
69260;SDS011;56378;52.404;20.816;2024-03-08T02:40:22;54.05;;;18.50;;
69260;SDS011;56378;52.404;20.816;2024-03-08T02:42:47;54.20;;;18.50;;
69260;SDS011;56378;52.404;20.816;2024-03-08T02:45:13;52.73;;;18.27;;
69260;SDS011;56378;52.404;20.816;2024-03-08T02:47:39;51.97;;;19.00;;
69260;SDS011;56378;52.404;20.816;2024-03-08T02:50:05;53.07;;;19.13;;
69260;SDS011;56378;52.404;20.816;2024-03-08T02:52:36;52.47;;;17.60;;
69260;SDS011;56378;52.404;20.816;2024-03-08T02:55:02;50.17;;;18.95;;
69260;SDS011;56378;52.404;20.816;2024-03-08T02:57:27;57.25;;;20.20;;
69260;SDS011;56378;52.404;20.816;2024-03-08T02:59:53;54.37;;;19.67;;
69260;SDS011;56378;52.404;20.816;2024-03-08T03:02:19;53.92;;;19.15;;
69260;SDS011;56378;52.404;20.816;2024-03-08T03:04:45;54.60;;;20.73;;
69260;SDS011;56378;52.404;20.816;2024-03-08T03:07:10;50.63;;;18.85;;
69260;SDS011;56378;52.404;20.816;2024-03-08T03:09:36;59.50;;;20.43;;
69260;SDS011;56378;52.404;20.816;2024-03-08T03:12:02;52.20;;;19.13;;
69260;SDS011;56378;52.404;20.816;2024-03-08T03:14:28;53.20;;;18.67;;
69260;SDS011;56378;52.404;20.816;2024-03-08T03:16:54;52.67;;;19.17;;
69260;SDS011;56378;52.404;20.816;2024-03-08T03:19:20;51.43;;;18.00;;
69260;SDS011;56378;52.404;20.816;2024-03-08T03:21:46;50.72;;;18.52;;
69260;SDS011;56378;52.404;20.816;2024-03-08T03:24:12;57.90;;;19.90;;
69260;SDS011;56378;52.404;20.816;2024-03-08T03:26:41;51.72;;;18.83;;
69260;SDS011;56378;52.404;20.816;2024-03-08T03:29:08;46.00;;;18.83;;
69260;SDS011;56378;52.404;20.816;2024-03-08T03:31:35;53.43;;;18.67;;
69260;SDS011;56378;52.404;20.816;2024-03-08T03:34:01;53.22;;;18.88;;
69260;SDS011;56378;52.404;20.816;2024-03-08T03:36:31;50.88;;;18.75;;
69260;SDS011;56378;52.404;20.816;2024-03-08T03:38:57;51.22;;;17.50;;
69260;SDS011;56378;52.404;20.816;2024-03-08T03:41:43;52.20;;;18.27;;
69260;SDS011;56378;52.404;20.816;2024-03-08T03:44:11;50.55;;;18.98;;
69260;SDS011;56378;52.404;20.816;2024-03-08T03:46:37;55.45;;;19.67;;
69260;SDS011;56378;52.404;20.816;2024-03-08T03:49:09;55.83;;;19.23;;
69260;SDS011;56378;52.404;20.816;2024-03-08T03:51:34;47.00;;;18.17;;
69260;SDS011;56378;52.404;20.816;2024-03-08T03:54:00;52.67;;;18.40;;
69260;SDS011;56378;52.404;20.816;2024-03-08T03:56:28;55.07;;;18.57;;
69260;SDS011;56378;52.404;20.816;2024-03-08T03:58:55;52.17;;;18.90;;
69260;SDS011;56378;52.404;20.816;2024-03-08T04:01:21;51.85;;;19.45;;
69260;SDS011;56378;52.404;20.816;2024-03-08T04:03:47;54.30;;;17.77;;
69260;SDS011;56378;52.404;20.816;2024-03-08T04:06:13;53.23;;;19.40;;
69260;SDS011;56378;52.404;20.816;2024-03-08T04:08:39;45.30;;;17.45;;
69260;SDS011;56378;52.404;20.816;2024-03-08T04:11:06;54.67;;;20.25;;
69260;SDS011;56378;52.404;20.816;2024-03-08T04:13:33;57.57;;;18.93;;
69260;SDS011;56378;52.404;20.816;2024-03-08T04:15:59;50.95;;;17.70;;
69260;SDS011;56378;52.404;20.816;2024-03-08T04:18:25;58.92;;;20.08;;
69260;SDS011;56378;52.404;20.816;2024-03-08T04:20:51;52.03;;;19.47;;
69260;SDS011;56378;52.404;20.816;2024-03-08T04:23:17;46.55;;;18.60;;
69260;SDS011;56378;52.404;20.816;2024-03-08T04:25:43;52.30;;;18.75;;
69260;SDS011;56378;52.404;20.816;2024-03-08T04:28:09;50.33;;;19.05;;
69260;SDS011;56378;52.404;20.816;2024-03-08T04:30:37;54.27;;;18.37;;
69260;SDS011;56378;52.404;20.816;2024-03-08T04:33:04;52.17;;;18.23;;
69260;SDS011;56378;52.404;20.816;2024-03-08T04:35:30;57.83;;;19.80;;
69260;SDS011;56378;52.404;20.816;2024-03-08T04:37:55;53.90;;;18.13;;
69260;SDS011;56378;52.404;20.816;2024-03-08T04:40:22;47.80;;;18.20;;
69260;SDS011;56378;52.404;20.816;2024-03-08T04:42:48;52.00;;;18.17;;
69260;SDS011;56378;52.404;20.816;2024-03-08T04:45:16;47.25;;;18.80;;
69260;SDS011;56378;52.404;20.816;2024-03-08T04:47:42;55.40;;;18.80;;
69260;SDS011;56378;52.404;20.816;2024-03-08T04:50:08;52.05;;;18.02;;
69260;SDS011;56378;52.404;20.816;2024-03-08T04:52:34;52.67;;;17.63;;
69260;SDS011;56378;52.404;20.816;2024-03-08T04:55:00;46.80;;;18.43;;
69260;SDS011;56378;52.404;20.816;2024-03-08T04:57:29;59.20;;;19.33;;
69260;SDS011;56378;52.404;20.816;2024-03-08T04:59:55;51.63;;;18.17;;
69260;SDS011;56378;52.404;20.816;2024-03-08T05:02:21;47.77;;;17.77;;
69260;SDS011;56378;52.404;20.816;2024-03-08T05:04:48;51.58;;;18.88;;
69260;SDS011;56378;52.404;20.816;2024-03-08T05:07:13;51.88;;;17.90;;
69260;SDS011;56378;52.404;20.816;2024-03-08T05:09:39;53.13;;;18.43;;
69260;SDS011;56378;52.404;20.816;2024-03-08T05:12:06;54.78;;;17.77;;
69260;SDS011;56378;52.404;20.816;2024-03-08T05:14:33;53.78;;;19.10;;
69260;SDS011;56378;52.404;20.816;2024-03-08T05:17:00;48.33;;;17.90;;
69260;SDS011;56378;52.404;20.816;2024-03-08T05:19:26;52.88;;;18.70;;
69260;SDS011;56378;52.404;20.816;2024-03-08T05:21:51;56.25;;;19.08;;
69260;SDS011;56378;52.404;20.816;2024-03-08T05:24:17;49.50;;;19.10;;
69260;SDS011;56378;52.404;20.816;2024-03-08T05:26:44;53.42;;;18.38;;
69260;SDS011;56378;52.404;20.816;2024-03-08T05:32:29;54.85;;;19.05;;
69260;SDS011;56378;52.404;20.816;2024-03-08T05:34:55;50.47;;;18.10;;
69260;SDS011;56378;52.404;20.816;2024-03-08T05:37:20;51.00;;;18.00;;
69260;SDS011;56378;52.404;20.816;2024-03-08T05:39:46;52.60;;;18.42;;
69260;SDS011;56378;52.404;20.816;2024-03-08T05:42:12;50.97;;;18.77;;
69260;SDS011;56378;52.404;20.816;2024-03-08T05:44:38;52.28;;;19.25;;
69260;SDS011;56378;52.404;20.816;2024-03-08T05:47:05;57.37;;;19.50;;
69260;SDS011;56378;52.404;20.816;2024-03-08T05:49:32;56.15;;;19.60;;
69260;SDS011;56378;52.404;20.816;2024-03-08T05:51:59;60.08;;;20.45;;
69260;SDS011;56378;52.404;20.816;2024-03-08T05:54:25;59.47;;;20.20;;
69260;SDS011;56378;52.404;20.816;2024-03-08T05:56:52;59.55;;;19.40;;
69260;SDS011;56378;52.404;20.816;2024-03-08T05:59:18;53.93;;;20.03;;
69260;SDS011;56378;52.404;20.816;2024-03-08T06:01:43;52.92;;;21.00;;
69260;SDS011;56378;52.404;20.816;2024-03-08T06:04:11;62.77;;;21.73;;
69260;SDS011;56378;52.404;20.816;2024-03-08T06:06:36;54.13;;;20.40;;
69260;SDS011;56378;52.404;20.816;2024-03-08T06:09:05;59.25;;;22.10;;
69260;SDS011;56378;52.404;20.816;2024-03-08T06:11:36;85.65;;;29.83;;
69260;SDS011;56378;52.404;20.816;2024-03-08T06:14:02;80.53;;;29.00;;
69260;SDS011;56378;52.404;20.816;2024-03-08T06:16:28;77.93;;;30.92;;
69260;SDS011;56378;52.404;20.816;2024-03-08T06:18:57;79.78;;;30.35;;
69260;SDS011;56378;52.404;20.816;2024-03-08T06:21:26;83.87;;;31.30;;
69260;SDS011;56378;52.404;20.816;2024-03-08T06:23:54;78.18;;;32.42;;
69260;SDS011;56378;52.404;20.816;2024-03-08T06:26:21;78.80;;;30.55;;
69260;SDS011;56378;52.404;20.816;2024-03-08T06:28:47;76.57;;;32.55;;
69260;SDS011;56378;52.404;20.816;2024-03-08T06:31:13;71.05;;;31.50;;
69260;SDS011;56378;52.404;20.816;2024-03-08T06:33:40;70.60;;;29.90;;
69260;SDS011;56378;52.404;20.816;2024-03-08T06:36:05;63.38;;;28.42;;
69260;SDS011;56378;52.404;20.816;2024-03-08T06:38:32;58.50;;;28.42;;
69260;SDS011;56378;52.404;20.816;2024-03-08T06:40:57;56.53;;;28.77;;
69260;SDS011;56378;52.404;20.816;2024-03-08T06:43:23;56.72;;;29.15;;
69260;SDS011;56378;52.404;20.816;2024-03-08T06:45:55;59.88;;;30.48;;
69260;SDS011;56378;52.404;20.816;2024-03-08T06:48:20;57.07;;;30.27;;
69260;SDS011;56378;52.404;20.816;2024-03-08T06:50:47;53.42;;;31.20;;
69260;SDS011;56378;52.404;20.816;2024-03-08T06:53:13;60.70;;;31.63;;
69260;SDS011;56378;52.404;20.816;2024-03-08T06:55:39;59.20;;;33.22;;
69260;SDS011;56378;52.404;20.816;2024-03-08T06:58:05;58.73;;;34.07;;
69260;SDS011;56378;52.404;20.816;2024-03-08T07:00:35;60.35;;;35.03;;
69260;SDS011;56378;52.404;20.816;2024-03-08T07:03:02;58.53;;;35.83;;
69260;SDS011;56378;52.404;20.816;2024-03-08T07:05:29;60.72;;;36.00;;
69260;SDS011;56378;52.404;20.816;2024-03-08T07:07:55;60.97;;;36.05;;
69260;SDS011;56378;52.404;20.816;2024-03-08T07:10:21;62.83;;;36.37;;
69260;SDS011;56378;52.404;20.816;2024-03-08T07:12:49;61.53;;;36.45;;
69260;SDS011;56378;52.404;20.816;2024-03-08T07:15:15;56.92;;;34.97;;
69260;SDS011;56378;52.404;20.816;2024-03-08T07:17:44;64.40;;;38.50;;
69260;SDS011;56378;52.404;20.816;2024-03-08T07:20:13;62.45;;;38.42;;
69260;SDS011;56378;52.404;20.816;2024-03-08T07:22:41;64.70;;;40.58;;
69260;SDS011;56378;52.404;20.816;2024-03-08T07:25:07;61.13;;;38.50;;
69260;SDS011;56378;52.404;20.816;2024-03-08T07:27:52;59.92;;;37.65;;
69260;SDS011;56378;52.404;20.816;2024-03-08T07:30:23;59.73;;;37.87;;
69260;SDS011;56378;52.404;20.816;2024-03-08T07:33:08;54.47;;;33.92;;
69260;SDS011;56378;52.404;20.816;2024-03-08T07:35:36;55.70;;;35.17;;
69260;SDS011;56378;52.404;20.816;2024-03-08T07:38:12;50.45;;;33.97;;
69260;SDS011;56378;52.404;20.816;2024-03-08T07:40:41;49.78;;;32.15;;
69260;SDS011;56378;52.404;20.816;2024-03-08T07:43:10;47.07;;;31.43;;
69260;SDS011;56378;52.404;20.816;2024-03-08T07:45:37;46.05;;;30.05;;
69260;SDS011;56378;52.404;20.816;2024-03-08T07:48:03;44.50;;;29.00;;
69260;SDS011;56378;52.404;20.816;2024-03-08T07:50:35;44.58;;;28.42;;
69260;SDS011;56378;52.404;20.816;2024-03-08T07:53:04;43.58;;;27.73;;
69260;SDS011;56378;52.404;20.816;2024-03-08T07:55:32;37.83;;;26.03;;
69260;SDS011;56378;52.404;20.816;2024-03-08T07:58:00;44.95;;;27.52;;
69260;SDS011;56378;52.404;20.816;2024-03-08T08:00:26;38.05;;;26.40;;
69260;SDS011;56378;52.404;20.816;2024-03-08T08:02:52;38.78;;;24.58;;
69260;SDS011;56378;52.404;20.816;2024-03-08T08:05:18;38.50;;;24.25;;
69260;SDS011;56378;52.404;20.816;2024-03-08T08:07:45;40.70;;;23.27;;
69260;SDS011;56378;52.404;20.816;2024-03-08T08:10:14;37.55;;;22.15;;
69260;SDS011;56378;52.404;20.816;2024-03-08T08:12:50;38.08;;;21.25;;
69260;SDS011;56378;52.404;20.816;2024-03-08T08:15:19;36.17;;;21.13;;
69260;SDS011;56378;52.404;20.816;2024-03-08T08:17:45;37.92;;;20.13;;
69260;SDS011;56378;52.404;20.816;2024-03-08T08:20:11;35.87;;;19.07;;
69260;SDS011;56378;52.404;20.816;2024-03-08T08:22:38;36.22;;;18.00;;
69260;SDS011;56378;52.404;20.816;2024-03-08T08:25:08;34.38;;;17.13;;
69260;SDS011;56378;52.404;20.816;2024-03-08T08:27:34;34.85;;;16.73;;
69260;SDS011;56378;52.404;20.816;2024-03-08T08:30:02;26.15;;;14.50;;
69260;SDS011;56378;52.404;20.816;2024-03-08T08:32:34;32.93;;;15.67;;
69260;SDS011;56378;52.404;20.816;2024-03-08T08:35:04;30.67;;;15.85;;
69260;SDS011;56378;52.404;20.816;2024-03-08T08:37:31;32.45;;;15.07;;
69260;SDS011;56378;52.404;20.816;2024-03-08T08:39:57;39.08;;;17.98;;
69260;SDS011;56378;52.404;20.816;2024-03-08T08:42:23;25.53;;;11.97;;
69260;SDS011;56378;52.404;20.816;2024-03-08T08:44:49;21.42;;;10.40;;
69260;SDS011;56378;52.404;20.816;2024-03-08T08:47:17;18.92;;;9.60;;
69260;SDS011;56378;52.404;20.816;2024-03-08T08:49:44;21.83;;;10.65;;
69260;SDS011;56378;52.404;20.816;2024-03-08T08:52:11;19.15;;;9.57;;
69260;SDS011;56378;52.404;20.816;2024-03-08T08:54:37;15.70;;;7.60;;
69260;SDS011;56378;52.404;20.816;2024-03-08T08:57:03;21.42;;;9.90;;
69260;SDS011;56378;52.404;20.816;2024-03-08T08:59:33;18.48;;;8.05;;
69260;SDS011;56378;52.404;20.816;2024-03-08T09:02:01;16.75;;;7.60;;
69260;SDS011;56378;52.404;20.816;2024-03-08T09:04:28;19.40;;;9.53;;
69260;SDS011;56378;52.404;20.816;2024-03-08T09:06:55;18.67;;;8.40;;
69260;SDS011;56378;52.404;20.816;2024-03-08T09:09:22;21.95;;;10.30;;
69260;SDS011;56378;52.404;20.816;2024-03-08T09:11:48;21.48;;;9.75;;
69260;SDS011;56378;52.404;20.816;2024-03-08T09:14:14;20.95;;;9.90;;
69260;SDS011;56378;52.404;20.816;2024-03-08T09:16:40;20.63;;;10.67;;
69260;SDS011;56378;52.404;20.816;2024-03-08T09:19:06;21.50;;;10.60;;
69260;SDS011;56378;52.404;20.816;2024-03-08T09:21:32;22.73;;;9.93;;
69260;SDS011;56378;52.404;20.816;2024-03-08T09:24:00;21.42;;;10.60;;
69260;SDS011;56378;52.404;20.816;2024-03-08T09:26:26;19.92;;;10.23;;
69260;SDS011;56378;52.404;20.816;2024-03-08T09:28:52;18.63;;;10.03;;
69260;SDS011;56378;52.404;20.816;2024-03-08T09:31:20;19.60;;;10.38;;
69260;SDS011;56378;52.404;20.816;2024-03-08T09:33:46;14.90;;;7.85;;
69260;SDS011;56378;52.404;20.816;2024-03-08T09:36:12;15.95;;;7.90;;
69260;SDS011;56378;52.404;20.816;2024-03-08T09:38:39;20.03;;;9.37;;
69260;SDS011;56378;52.404;20.816;2024-03-08T09:41:05;19.08;;;9.70;;
69260;SDS011;56378;52.404;20.816;2024-03-08T09:43:31;19.70;;;9.77;;
69260;SDS011;56378;52.404;20.816;2024-03-08T09:45:57;19.33;;;9.23;;
69260;SDS011;56378;52.404;20.816;2024-03-08T09:48:23;19.50;;;9.70;;
69260;SDS011;56378;52.404;20.816;2024-03-08T09:50:51;17.13;;;9.20;;
69260;SDS011;56378;52.404;20.816;2024-03-08T09:53:17;21.20;;;10.02;;
69260;SDS011;56378;52.404;20.816;2024-03-08T09:55:43;19.55;;;9.70;;
69260;SDS011;56378;52.404;20.816;2024-03-08T09:58:13;18.97;;;10.37;;
69260;SDS011;56378;52.404;20.816;2024-03-08T10:00:43;20.13;;;9.70;;
69260;SDS011;56378;52.404;20.816;2024-03-08T10:03:09;19.40;;;10.10;;
69260;SDS011;56378;52.404;20.816;2024-03-08T10:05:35;16.70;;;9.18;;
69260;SDS011;56378;52.404;20.816;2024-03-08T10:08:02;16.48;;;8.57;;
69260;SDS011;56378;52.404;20.816;2024-03-08T10:10:28;18.83;;;9.40;;
69260;SDS011;56378;52.404;20.816;2024-03-08T10:12:53;18.00;;;8.98;;
69260;SDS011;56378;52.404;20.816;2024-03-08T10:15:21;18.95;;;9.43;;
69260;SDS011;56378;52.404;20.816;2024-03-08T10:17:47;17.17;;;9.60;;
69260;SDS011;56378;52.404;20.816;2024-03-08T10:20:17;17.55;;;8.95;;
69260;SDS011;56378;52.404;20.816;2024-03-08T10:22:43;17.25;;;9.07;;
69260;SDS011;56378;52.404;20.816;2024-03-08T10:25:12;18.50;;;9.20;;
69260;SDS011;56378;52.404;20.816;2024-03-08T10:27:41;18.83;;;8.77;;
69260;SDS011;56378;52.404;20.816;2024-03-08T10:30:10;18.17;;;9.70;;
69260;SDS011;56378;52.404;20.816;2024-03-08T10:32:41;17.05;;;8.85;;
69260;SDS011;56378;52.404;20.816;2024-03-08T10:35:07;18.73;;;9.40;;
69260;SDS011;56378;52.404;20.816;2024-03-08T10:37:33;17.27;;;9.33;;
69260;SDS011;56378;52.404;20.816;2024-03-08T10:40:25;17.48;;;8.55;;
69260;SDS011;56378;52.404;20.816;2024-03-08T10:42:56;16.20;;;8.95;;
69260;SDS011;56378;52.404;20.816;2024-03-08T10:45:36;18.45;;;9.20;;
69260;SDS011;56378;52.404;20.816;2024-03-08T10:51:02;17.30;;;9.67;;
69260;SDS011;56378;52.404;20.816;2024-03-08T10:53:28;16.65;;;9.00;;
69260;SDS011;56378;52.404;20.816;2024-03-08T10:55:57;19.13;;;9.15;;
69260;SDS011;56378;52.404;20.816;2024-03-08T10:58:28;15.02;;;8.02;;
69260;SDS011;56378;52.404;20.816;2024-03-08T11:00:55;14.75;;;8.18;;
69260;SDS011;56378;52.404;20.816;2024-03-08T11:06:06;20.27;;;7.97;;
69260;SDS011;56378;52.404;20.816;2024-03-08T11:08:35;16.20;;;8.50;;
69260;SDS011;56378;52.404;20.816;2024-03-08T11:11:02;17.30;;;8.30;;
69260;SDS011;56378;52.404;20.816;2024-03-08T11:13:37;17.80;;;7.93;;
69260;SDS011;56378;52.404;20.816;2024-03-08T11:16:50;16.43;;;8.13;;
69260;SDS011;56378;52.404;20.816;2024-03-08T11:21:30;16.42;;;8.48;;
69260;SDS011;56378;52.404;20.816;2024-03-08T11:24:02;15.90;;;7.72;;
69260;SDS011;56378;52.404;20.816;2024-03-08T11:26:31;15.63;;;7.78;;
69260;SDS011;56378;52.404;20.816;2024-03-08T11:32:14;15.40;;;7.38;;
69260;SDS011;56378;52.404;20.816;2024-03-08T11:34:42;16.42;;;7.60;;
69260;SDS011;56378;52.404;20.816;2024-03-08T11:37:12;16.95;;;7.78;;
69260;SDS011;56378;52.404;20.816;2024-03-08T11:39:40;15.13;;;7.13;;
69260;SDS011;56378;52.404;20.816;2024-03-08T11:42:11;17.00;;;7.23;;
69260;SDS011;56378;52.404;20.816;2024-03-08T11:44:37;16.75;;;7.40;;
69260;SDS011;56378;52.404;20.816;2024-03-08T11:47:08;17.95;;;8.00;;
69260;SDS011;56378;52.404;20.816;2024-03-08T11:49:35;14.95;;;8.07;;
69260;SDS011;56378;52.404;20.816;2024-03-08T11:52:01;16.50;;;7.83;;
69260;SDS011;56378;52.404;20.816;2024-03-08T11:54:28;16.42;;;7.45;;
69260;SDS011;56378;52.404;20.816;2024-03-08T11:56:55;17.30;;;8.13;;
69260;SDS011;56378;52.404;20.816;2024-03-08T11:59:27;16.05;;;7.90;;
69260;SDS011;56378;52.404;20.816;2024-03-08T12:02:01;14.77;;;6.93;;
69260;SDS011;56378;52.404;20.816;2024-03-08T12:04:28;15.40;;;7.60;;
69260;SDS011;56378;52.404;20.816;2024-03-08T12:06:56;14.70;;;7.68;;
69260;SDS011;56378;52.404;20.816;2024-03-08T12:09:25;16.17;;;7.82;;
69260;SDS011;56378;52.404;20.816;2024-03-08T12:11:51;15.40;;;7.75;;
69260;SDS011;56378;52.404;20.816;2024-03-08T12:14:17;14.40;;;7.47;;
69260;SDS011;56378;52.404;20.816;2024-03-08T12:16:43;14.95;;;7.50;;
69260;SDS011;56378;52.404;20.816;2024-03-08T12:19:09;16.67;;;7.80;;
69260;SDS011;56378;52.404;20.816;2024-03-08T12:21:35;16.73;;;8.03;;
69260;SDS011;56378;52.404;20.816;2024-03-08T12:24:10;13.77;;;7.55;;
69260;SDS011;56378;52.404;20.816;2024-03-08T12:26:39;15.77;;;7.85;;
69260;SDS011;56378;52.404;20.816;2024-03-08T12:29:17;15.20;;;7.15;;
69260;SDS011;56378;52.404;20.816;2024-03-08T12:32:00;14.68;;;7.68;;
69260;SDS011;56378;52.404;20.816;2024-03-08T12:34:30;16.87;;;7.80;;
69260;SDS011;56378;52.404;20.816;2024-03-08T12:36:57;14.70;;;7.50;;
69260;SDS011;56378;52.404;20.816;2024-03-08T12:39:23;16.08;;;8.38;;
69260;SDS011;56378;52.404;20.816;2024-03-08T12:41:55;17.58;;;8.75;;
69260;SDS011;56378;52.404;20.816;2024-03-08T12:44:25;16.77;;;8.27;;
69260;SDS011;56378;52.404;20.816;2024-03-08T12:46:53;19.93;;;8.70;;
69260;SDS011;56378;52.404;20.816;2024-03-08T12:49:19;17.30;;;7.95;;
69260;SDS011;56378;52.404;20.816;2024-03-08T12:51:47;16.35;;;8.43;;
69260;SDS011;56378;52.404;20.816;2024-03-08T12:54:13;16.83;;;7.60;;
69260;SDS011;56378;52.404;20.816;2024-03-08T12:56:39;16.27;;;7.60;;
69260;SDS011;56378;52.404;20.816;2024-03-08T12:59:05;15.80;;;7.72;;
69260;SDS011;56378;52.404;20.816;2024-03-08T13:01:36;16.60;;;7.68;;
69260;SDS011;56378;52.404;20.816;2024-03-08T13:04:04;16.13;;;7.10;;
69260;SDS011;56378;52.404;20.816;2024-03-08T13:06:32;15.85;;;7.75;;
69260;SDS011;56378;52.404;20.816;2024-03-08T13:08:58;16.95;;;7.75;;
69260;SDS011;56378;52.404;20.816;2024-03-08T13:11:24;17.38;;;8.13;;
69260;SDS011;56378;52.404;20.816;2024-03-08T13:13:50;16.38;;;8.18;;
69260;SDS011;56378;52.404;20.816;2024-03-08T13:16:17;18.20;;;8.13;;
69260;SDS011;56378;52.404;20.816;2024-03-08T13:18:44;16.80;;;7.50;;
69260;SDS011;56378;52.404;20.816;2024-03-08T13:21:10;17.30;;;7.70;;
69260;SDS011;56378;52.404;20.816;2024-03-08T13:23:39;17.50;;;7.65;;
69260;SDS011;56378;52.404;20.816;2024-03-08T13:26:10;15.05;;;7.32;;
69260;SDS011;56378;52.404;20.816;2024-03-08T13:28:46;18.97;;;7.77;;
69260;SDS011;56378;52.404;20.816;2024-03-08T13:31:19;17.15;;;7.68;;
69260;SDS011;56378;52.404;20.816;2024-03-08T13:33:48;15.98;;;7.75;;
69260;SDS011;56378;52.404;20.816;2024-03-08T13:36:14;14.48;;;7.50;;
69260;SDS011;56378;52.404;20.816;2024-03-08T13:38:44;16.02;;;7.68;;
69260;SDS011;56378;52.404;20.816;2024-03-08T13:41:12;14.83;;;7.57;;
69260;SDS011;56378;52.404;20.816;2024-03-08T13:43:43;16.30;;;7.55;;
69260;SDS011;56378;52.404;20.816;2024-03-08T13:46:10;16.10;;;6.82;;
69260;SDS011;56378;52.404;20.816;2024-03-08T13:48:37;14.27;;;7.35;;
69260;SDS011;56378;52.404;20.816;2024-03-08T13:51:04;17.93;;;7.50;;
69260;SDS011;56378;52.404;20.816;2024-03-08T13:53:35;17.38;;;7.03;;
69260;SDS011;56378;52.404;20.816;2024-03-08T13:56:04;16.65;;;6.78;;
69260;SDS011;56378;52.404;20.816;2024-03-08T13:58:30;14.87;;;6.63;;
69260;SDS011;56378;52.404;20.816;2024-03-08T14:00:56;17.77;;;6.82;;
69260;SDS011;56378;52.404;20.816;2024-03-08T14:03:22;14.80;;;6.57;;
69260;SDS011;56378;52.404;20.816;2024-03-08T14:05:49;13.98;;;6.68;;
69260;SDS011;56378;52.404;20.816;2024-03-08T14:08:15;16.03;;;6.17;;
69260;SDS011;56378;52.404;20.816;2024-03-08T14:10:42;16.08;;;7.20;;
69260;SDS011;56378;52.404;20.816;2024-03-08T14:13:08;13.75;;;6.40;;
69260;SDS011;56378;52.404;20.816;2024-03-08T14:15:34;14.50;;;6.88;;
69260;SDS011;56378;52.404;20.816;2024-03-08T14:18:00;18.23;;;7.17;;
69260;SDS011;56378;52.404;20.816;2024-03-08T14:20:26;13.60;;;6.40;;
69260;SDS011;56378;52.404;20.816;2024-03-08T14:22:53;14.38;;;6.43;;
69260;SDS011;56378;52.404;20.816;2024-03-08T14:25:22;13.80;;;6.63;;
69260;SDS011;56378;52.404;20.816;2024-03-08T14:27:49;16.02;;;6.43;;
69260;SDS011;56378;52.404;20.816;2024-03-08T14:30:20;16.60;;;7.03;;